Time;durP1;ratioP1;P1;durP2;ratioP2;P2;SDS_P1;SDS_P2;PMS_P1;PMS_P2;Temp;Humidity;BMP_temperature;BMP_pressure;BME280_temperature;BME280_humidity;BME280_pressure;Samples;Min_cycle;Max_cycle;Signal;HPM_P1;HPM_P2
2023/04/18 03:35:02;;;;;;;;;;;20.10;67.00;;;;;;6272376;22;19922;-79
2023/04/18 03:37:28;;;;;;;;;;;20.00;66.30;;;;;;6248874;22;19939;-79
2023/04/18 03:39:56;;;;;;;;;;;20.00;66.00;;;;;;6248957;22;20242;-80
2023/04/18 03:42:22;;;;;;;;;;;20.00;65.80;;;;;;6275170;22;19911;-79
2023/04/18 03:44:49;;;;;;;;;;;20.10;66.80;;;;;;6273295;22;19903;-79
2023/04/18 03:47:15;;;;;;;;;;;20.10;66.00;;;;;;6275475;22;20044;-80
2023/04/18 03:49:42;;;;;;;;;;;20.10;66.40;;;;;;6276123;22;19981;-80
2023/04/18 03:52:09;;;;;;;;;;;20.00;65.80;;;;;;6275353;22;19910;-79
2023/04/18 03:54:35;;;;;;;;;;;20.00;66.40;;;;;;6276350;22;19910;-79
2023/04/18 03:57:02;;;;;;;;;;;20.00;66.40;;;;;;6275311;22;19904;-79
2023/04/18 03:59:28;;;;;;;;;;;19.90;67.10;;;;;;6248591;22;19908;-79
2023/04/18 04:01:55;;;;;;;;;;;19.90;67.60;;;;;;6275264;22;19911;-79
2023/04/18 04:04:21;;;;;;;;;;;19.90;67.40;;;;;;6275368;22;19908;-80
2023/04/18 04:06:48;;;;;;;;;;;19.90;66.20;;;;;;6274890;22;19988;-79
2023/04/18 04:09:15;;;;;;;;;;;20.00;65.60;;;;;;6275389;22;19989;-80
2023/04/18 04:11:42;;;;;;;;;;;20.00;66.00;;;;;;6270872;22;20495;-77
2023/04/18 04:14:08;;;;;;;;;;;20.10;66.20;;;;;;6271283;22;20246;-80
2023/04/18 04:16:35;;;;;;;;;;;20.10;66.90;;;;;;6272221;22;19921;-77
2023/04/18 04:19:01;;;;;;;;;;;20.00;67.40;;;;;;6272025;22;19907;-77
2023/04/18 04:21:30;;;;;;;;;;;20.10;66.60;;;;;;6271547;22;19911;-80
2023/04/18 04:23:57;;;;;;;;;;;20.00;67.10;;;;;;6271657;22;19957;-80
2023/04/18 04:26:25;;;;;;;;;;;20.10;66.50;;;;;;6272051;22;20330;-82
2023/04/18 04:28:52;;;;;;;;;;;20.10;66.80;;;;;;6271980;22;19914;-82
2023/04/18 04:31:20;;;;;;;;;;;20.10;66.80;;;;;;6271601;22;19930;-83
2023/04/18 04:33:47;;;;;;;;;;;20.10;66.30;;;;;;6269844;22;20376;-81
2023/04/18 04:36:15;;;;;;;;;;;20.10;66.50;;;;;;6271553;22;19911;-77
2023/04/18 04:38:43;;;;;;;;;;;20.10;66.60;;;;;;6272071;22;19954;-78
2023/04/18 04:41:10;;;;;;;;;;;20.10;66.60;;;;;;6272416;22;19915;-79
2023/04/18 04:43:39;;;;;;;;;;;20.10;66.40;;;;;;6272558;22;20001;-79
2023/04/18 04:46:06;;;;;;;;;;;20.10;66.40;;;;;;6270646;22;19942;-79
2023/04/18 04:48:33;;;;;;;;;;;20.10;66.30;;;;;;6245284;22;20366;-78
2023/04/18 04:50:59;;;;;;;;;;;20.10;66.70;;;;;;6272712;22;20349;-78
2023/04/18 04:53:27;;;;;;;;;;;20.00;67.00;;;;;;6219844;22;19911;-77
2023/04/18 04:55:53;;;;;;;;;;;20.00;67.00;;;;;;6245539;22;19978;-77
2023/04/18 04:58:20;;;;;;;;;;;20.00;66.70;;;;;;6244720;22;19903;-76
2023/04/18 05:00:46;;;;;;;;;;;20.00;66.40;;;;;;6270276;22;19915;-79
2023/04/18 05:03:13;;;;;;;;;;;20.00;66.40;;;;;;6272101;22;20335;-77
2023/04/18 05:05:40;;;;;;;;;;;20.00;66.90;;;;;;6245260;22;19907;-80
2023/04/18 05:08:06;;;;;;;;;;;20.10;65.40;;;;;;6273082;22;19953;-80
2023/04/18 05:10:35;;;;;;;;;;;20.10;65.90;;;;;;6274624;22;19903;-79
2023/04/18 05:13:03;;;;;;;;;;;20.10;65.50;;;;;;6274400;22;19907;-79
2023/04/18 05:15:30;;;;;;;;;;;20.10;65.80;;;;;;6274400;22;19904;-84
2023/04/18 05:17:57;;;;;;;;;;;20.10;65.80;;;;;;6273933;22;19907;-84
2023/04/18 05:20:23;;;;;;;;;;;20.20;66.40;;;;;;6274372;22;19958;-82
2023/04/18 05:22:50;;;;;;;;;;;20.10;66.30;;;;;;6273908;22;19964;-83
2023/04/18 05:25:17;;;;;;;;;;;20.10;66.40;;;;;;6273793;22;19911;-83
2023/04/18 05:27:47;;;;;;;;;;;20.10;67.00;;;;;;6246913;22;19907;-82
2023/04/18 05:30:13;;;;;;;;;;;20.10;66.90;;;;;;6273862;22;19915;-82
2023/04/18 05:32:40;;;;;;;;;;;20.10;66.90;;;;;;6271605;22;19945;-82
2023/04/18 05:35:07;;;;;;;;;;;20.10;67.40;;;;;;6273300;22;19923;-79
2023/04/18 05:37:33;;;;;;;;;;;20.10;66.90;;;;;;6272097;22;19918;-86
2023/04/18 05:40:00;;;;;;;;;;;20.10;67.30;;;;;;6273501;22;19907;-79
2023/04/18 05:42:27;;;;;;;;;;;20.00;67.70;;;;;;6273618;22;19919;-79
2023/04/18 05:44:53;;;;;;;;;;;20.00;68.00;;;;;;6273796;22;19957;-82
2023/04/18 05:47:20;;;;;;;;;;;20.00;68.20;;;;;;6272766;22;19986;-80
2023/04/18 05:49:47;;;;;;;;;;;20.00;68.70;;;;;;6273593;22;20273;-79
2023/04/18 05:52:13;;;;;;;;;;;20.00;69.10;;;;;;6273026;22;19914;-79
2023/04/18 05:54:40;;;;;;;;;;;20.00;69.10;;;;;;6273941;22;19934;-80
2023/04/18 05:57:07;;;;;;;;;;;20.00;69.80;;;;;;6273044;22;19919;-80
2023/04/18 05:59:33;;;;;;;;;;;19.90;69.90;;;;;;6245705;22;19911;-81
2023/04/18 06:02:00;;;;;;;;;;;19.90;70.30;;;;;;6273667;22;19965;-79
2023/04/18 06:04:27;;;;;;;;;;;19.90;70.50;;;;;;6273367;22;19985;-79
2023/04/18 06:06:54;;;;;;;;;;;19.90;71.10;;;;;;6272993;22;20317;-80
2023/04/18 06:09:20;;;;;;;;;;;19.90;71.50;;;;;;6273379;22;20027;-81
2023/04/18 06:11:47;;;;;;;;;;;19.90;71.50;;;;;;6273421;22;20304;-82
2023/04/18 06:14:14;;;;;;;;;;;19.90;71.80;;;;;;6273576;22;19907;-81
2023/04/18 06:16:40;;;;;;;;;;;19.80;72.70;;;;;;6273161;22;19903;-81
2023/04/18 06:19:07;;;;;;;;;;;19.80;72.90;;;;;;6272664;22;19949;-80
2023/04/18 06:21:34;;;;;;;;;;;19.80;72.70;;;;;;6271520;22;19919;-79
2023/04/18 06:24:01;;;;;;;;;;;19.80;73.20;;;;;;6271564;22;19939;-81
2023/04/18 06:26:29;;;;;;;;;;;19.80;73.50;;;;;;6272320;22;19913;-80
2023/04/18 06:28:55;;;;;;;;;;;19.80;73.70;;;;;;6272422;22;19907;-80
2023/04/18 06:31:22;;;;;;;;;;;19.80;73.40;;;;;;6272327;22;20250;-80
2023/04/18 06:33:49;;;;;;;;;;;19.80;73.00;;;;;;6272928;22;19907;-77
2023/04/18 06:36:15;;;;;;;;;;;19.80;73.00;;;;;;6272733;22;19915;-81
2023/04/18 06:38:42;;;;;;;;;;;19.80;73.00;;;;;;6246474;22;19903;-82
2023/04/18 06:41:09;;;;;;;;;;;19.80;73.40;;;;;;6271110;22;19986;-80
2023/04/18 06:43:36;;;;;;;;;;;19.80;73.90;;;;;;6273263;22;19908;-80
2023/04/18 06:46:04;;;;;;;;;;;19.80;73.80;;;;;;6272703;22;19932;-76
2023/04/18 06:48:30;;;;;;;;;;;19.80;74.30;;;;;;6272412;22;20339;-80
2023/04/18 06:50:57;;;;;;;;;;;19.70;74.20;;;;;;6272736;22;19920;-80
2023/04/18 06:53:27;;;;;;;;;;;19.70;74.30;;;;;;6271491;22;20277;-76
2023/04/18 06:55:54;;;;;;;;;;;19.70;74.50;;;;;;6272664;22;19914;-76
2023/04/18 06:58:21;;;;;;;;;;;19.70;74.70;;;;;;6273422;22;19911;-81
2023/04/18 07:00:50;;;;;;;;;;;19.70;74.50;;;;;;6272536;22;19978;-75
2023/04/18 07:03:17;;;;;;;;;;;19.70;74.70;;;;;;6272822;22;20319;-76
2023/04/18 07:05:44;;;;;;;;;;;19.70;74.50;;;;;;6272924;22;19904;-77
2023/04/18 07:08:11;;;;;;;;;;;19.70;74.70;;;;;;6272232;22;19955;-76
2023/04/18 07:10:37;;;;;;;;;;;19.70;75.00;;;;;;6245194;22;20266;-84
2023/04/18 07:13:04;;;;;;;;;;;19.70;75.20;;;;;;6272603;22;19908;-78
2023/04/18 07:15:31;;;;;;;;;;;19.60;75.40;;;;;;6271260;22;19969;-80
2023/04/18 07:17:57;;;;;;;;;;;19.60;75.50;;;;;;6272201;22;19915;-80
2023/04/18 07:20:24;;;;;;;;;;;19.60;75.70;;;;;;6272917;22;20330;-81
2023/04/18 07:22:51;;;;;;;;;;;19.60;75.80;;;;;;6271642;22;19922;-81
2023/04/18 07:25:18;;;;;;;;;;;19.60;75.80;;;;;;6270841;22;19959;-79
2023/04/18 07:27:45;;;;;;;;;;;19.50;75.80;;;;;;6272325;22;20340;-79
2023/04/18 07:30:12;;;;;;;;;;;19.50;76.00;;;;;;6272274;22;19994;-78
2023/04/18 07:32:39;;;;;;;;;;;19.40;76.10;;;;;;6269765;22;19911;-79
2023/04/18 07:35:06;;;;;;;;;;;19.40;76.40;;;;;;6270947;22;20715;-78
2023/04/18 07:37:33;;;;;;;;;;;19.50;76.30;;;;;;6271033;22;19915;-78
2023/04/18 07:40:00;;;;;;;;;;;19.40;76.40;;;;;;6272386;22;20769;-78
2023/04/18 07:42:26;;;;;;;;;;;19.50;76.40;;;;;;6271387;22;19919;-74
2023/04/18 07:44:59;;;;;;;;;;;19.40;76.60;;;;;;6271439;22;19907;-78
2023/04/18 07:47:26;;;;;;;;;;;19.40;76.70;;;;;;6268931;22;20382;-78
2023/04/18 07:49:53;;;;;;;;;;;19.40;76.70;;;;;;6272064;22;19907;-78
2023/04/18 07:52:20;;;;;;;;;;;19.40;76.70;;;;;;6272392;22;19914;-79
2023/04/18 07:54:46;;;;;;;;;;;19.40;76.70;;;;;;6272228;22;19981;-78
2023/04/18 07:57:13;;;;;;;;;;;19.40;76.30;;;;;;6272306;22;19907;-75
2023/04/18 07:59:40;;;;;;;;;;;19.30;76.30;;;;;;6271379;22;19976;-78
2023/04/18 08:02:07;;;;;;;;;;;19.30;76.30;;;;;;6272468;22;19915;-77
2023/04/18 08:04:33;;;;;;;;;;;19.30;76.10;;;;;;6272577;22;19916;-78
2023/04/18 08:07:00;;;;;;;;;;;19.30;76.10;;;;;;6271920;22;19961;-78
2023/04/18 08:09:27;;;;;;;;;;;19.30;76.00;;;;;;6271265;22;19961;-78
2023/04/18 08:11:55;;;;;;;;;;;19.30;75.60;;;;;;6243144;22;19911;-78
2023/04/18 11:28:58;;;;;;;;;;;18.30;76.80;;;;;;6241910;23;20752;-77
2023/04/18 11:31:25;;;;;;;;;;;18.20;76.90;;;;;;6239791;23;19931;-78
2023/04/18 11:33:52;;;;;;;;;;;18.20;77.20;;;;;;6241991;23;19957;-78
2023/04/18 11:36:19;;;;;;;;;;;18.20;77.30;;;;;;6214788;22;20408;-79
2023/04/18 11:38:46;;;;;;;;;;;18.20;77.50;;;;;;6241613;23;19907;-78
2023/04/18 11:41:15;;;;;;;;;;;18.10;77.70;;;;;;6240896;23;20381;-73
2023/04/18 11:43:43;;;;;;;;;;;18.10;77.60;;;;;;6241603;23;19904;-77
2023/04/18 11:46:10;;;;;;;;;;;18.10;77.80;;;;;;6241994;22;19953;-78
2023/04/18 11:48:37;;;;;;;;;;;18.10;78.00;;;;;;6240649;23;20416;-77
2023/04/18 11:51:05;;;;;;;;;;;18.00;77.90;;;;;;6241727;23;19990;-80
2023/04/18 11:53:35;;;;;;;;;;;18.10;77.80;;;;;;6242270;23;19907;-80
2023/04/18 11:56:02;;;;;;;;;;;18.10;78.10;;;;;;6241811;22;19903;-78
2023/04/18 11:58:32;;;;;;;;;;;18.10;78.20;;;;;;6241904;23;20196;-78
2023/04/18 12:00:59;;;;;;;;;;;18.00;78.20;;;;;;6240311;23;20327;-82
2023/04/18 12:03:27;;;;;;;;;;;18.00;78.20;;;;;;6215442;23;20263;-82
2023/04/18 12:05:58;;;;;;;;;;;18.00;78.30;;;;;;6215336;23;20642;-82
2023/04/18 12:08:25;;;;;;;;;;;18.00;78.50;;;;;;6240996;23;19907;-81
2023/04/18 12:10:53;;;;;;;;;;;18.00;78.40;;;;;;6214902;23;20295;-80
2023/04/18 12:13:26;;;;;;;;;;;18.00;78.60;;;;;;6214856;23;20718;-81
2023/04/18 12:15:53;;;;;;;;;;;18.00;78.70;;;;;;6241678;23;19957;-75
2023/04/18 12:18:20;;;;;;;;;;;18.00;78.80;;;;;;6212908;23;19983;-80
2023/04/18 12:20:51;;;;;;;;;;;18.00;78.60;;;;;;6241250;23;19987;-81
2023/04/18 12:23:29;;;;;;;;;;;18.00;78.40;;;;;;6240968;23;19922;-81
2023/04/18 12:26:02;;;;;;;;;;;18.00;78.50;;;;;;6242007;23;19912;-81
2023/04/18 12:28:29;;;;;;;;;;;18.00;78.50;;;;;;6241318;22;20381;-79
2023/04/18 12:30:56;;;;;;;;;;;17.90;78.50;;;;;;6243629;23;19911;-76
2023/04/18 12:33:23;;;;;;;;;;;17.90;78.80;;;;;;6244740;23;20291;-76
2023/04/18 12:35:51;;;;;;;;;;;17.90;78.70;;;;;;6244694;23;19907;-76
2023/04/18 12:38:23;;;;;;;;;;;17.90;78.90;;;;;;6244665;22;19910;-76
2023/04/18 12:40:50;;;;;;;;;;;17.90;78.80;;;;;;6245109;23;20231;-76
2023/04/18 12:43:17;;;;;;;;;;;17.80;78.90;;;;;;6245090;23;19969;-76
2023/04/18 12:45:44;;;;;;;;;;;17.80;79.10;;;;;;6245169;23;19925;-76
2023/04/18 12:48:11;;;;;;;;;;;17.80;79.10;;;;;;6243649;22;19986;-76
2023/04/18 12:50:38;;;;;;;;;;;17.80;79.20;;;;;;6244195;23;19911;-76
2023/04/18 12:53:05;;;;;;;;;;;17.80;79.30;;;;;;6245382;23;19907;-77
2023/04/18 12:55:32;;;;;;;;;;;17.80;79.30;;;;;;6244009;23;19911;-75
2023/04/18 12:57:59;;;;;;;;;;;17.80;79.00;;;;;;6244192;22;19908;-75
2023/04/18 13:00:26;;;;;;;;;;;17.80;79.30;;;;;;6244612;23;19998;-75
2023/04/18 13:02:53;;;;;;;;;;;17.70;79.30;;;;;;6244501;23;19919;-75
2023/04/18 13:05:21;;;;;;;;;;;17.70;79.40;;;;;;6244882;23;19910;-75
2023/04/18 13:07:48;;;;;;;;;;;17.70;79.80;;;;;;6217690;23;19910;-75
2023/04/18 13:10:19;;;;;;;;;;;17.70;80.20;;;;;;6218535;23;19986;-75
2023/04/18 13:12:46;;;;;;;;;;;17.70;80.60;;;;;;6244429;23;19926;-75
2023/04/18 13:15:12;;;;;;;;;;;17.50;81.00;;;;;;6217622;23;19934;-75
2023/04/18 13:17:39;;;;;;;;;;;17.50;81.20;;;;;;6244680;22;19908;-75
2023/04/18 13:20:07;;;;;;;;;;;17.40;81.50;;;;;;6218282;23;19903;-75
2023/04/18 13:22:34;;;;;;;;;;;17.30;81.50;;;;;;6244573;23;20334;-75
2023/04/18 13:25:01;;;;;;;;;;;17.20;81.70;;;;;;6244832;23;19904;-75
2023/04/18 13:39:11;;;;;;;;;;;17.00;83.00;;;;;;6274649;22;20071;-74
2023/04/18 13:41:38;;;;;;;;;;;17.00;83.10;;;;;;6277337;22;19920;-75
2023/04/18 13:44:04;;;;;;;;;;;17.00;83.60;;;;;;6277490;22;19904;-75
2023/04/18 13:46:31;;;;;;;;;;;17.00;83.70;;;;;;6276019;22;19974;-74
2023/04/18 13:48:58;;;;;;;;;;;16.90;83.20;;;;;;6275728;22;20261;-75
2023/04/18 13:51:25;;;;;;;;;;;16.90;83.40;;;;;;6277356;22;19960;-75
2023/04/18 13:53:52;;;;;;;;;;;16.90;83.60;;;;;;6277483;22;19904;-75
2023/04/18 13:56:18;;;;;;;;;;;16.80;83.50;;;;;;6277470;22;19911;-76
2023/04/18 13:58:45;;;;;;;;;;;16.90;83.50;;;;;;6277217;22;19904;-74
2023/04/18 14:01:12;;;;;;;;;;;16.80;83.60;;;;;;6276813;22;19982;-75
2023/04/18 14:03:40;;;;;;;;;;;16.80;83.80;;;;;;6276995;22;20311;-75
2023/04/18 14:06:06;;;;;;;;;;;16.80;83.80;;;;;;6277108;22;20335;-75
2023/04/18 14:08:33;;;;;;;;;;;16.80;83.90;;;;;;6276053;22;19934;-75
2023/04/18 14:11:00;;;;;;;;;;;16.80;83.80;;;;;;6277027;22;19969;-75
2023/04/18 14:13:26;;;;;;;;;;;16.70;83.60;;;;;;6276329;22;19903;-75
2023/04/18 14:15:53;;;;;;;;;;;16.80;83.70;;;;;;6276691;22;19903;-75
2023/04/18 14:18:20;;;;;;;;;;;16.70;83.70;;;;;;6276211;22;19903;-75
2023/04/18 14:20:47;;;;;;;;;;;16.70;83.70;;;;;;6276793;22;19903;-75
2023/04/18 14:23:14;;;;;;;;;;;16.70;83.60;;;;;;6276711;22;19911;-75
2023/04/18 14:25:41;;;;;;;;;;;16.70;83.60;;;;;;6276819;22;19903;-75
2023/04/18 14:28:09;;;;;;;;;;;16.70;83.60;;;;;;6276224;22;19926;-75
2023/04/18 14:30:36;;;;;;;;;;;16.70;83.70;;;;;;6276936;22;20234;-75
2023/04/18 14:33:03;;;;;;;;;;;16.60;83.80;;;;;;6275844;22;19931;-75
2023/04/18 14:35:30;;;;;;;;;;;16.60;83.80;;;;;;6276843;22;19968;-75
2023/04/18 14:37:56;;;;;;;;;;;16.60;83.90;;;;;;6267973;22;19995;-75
2023/04/18 14:40:23;;;;;;;;;;;16.60;84.10;;;;;;6245258;23;19938;-75
2023/04/18 14:42:50;;;;;;;;;;;16.50;84.10;;;;;;6219403;23;19912;-75
2023/04/18 14:45:16;;;;;;;;;;;16.50;84.30;;;;;;6219878;23;20342;-75
2023/04/18 14:47:43;;;;;;;;;;;16.50;84.40;;;;;;6245171;22;20250;-75
2023/04/18 14:50:14;;;;;;;;;;;16.40;84.50;;;;;;6219469;23;19914;-75
2023/04/18 14:52:40;;;;;;;;;;;16.40;84.60;;;;;;6219796;23;19983;-75
2023/04/18 14:55:07;;;;;;;;;;;16.40;84.70;;;;;;6246313;23;19934;-75
2023/04/18 14:57:35;;;;;;;;;;;16.40;84.70;;;;;;6245270;22;19911;-75
2023/04/18 15:00:04;;;;;;;;;;;16.40;84.80;;;;;;6246534;23;20349;-75
2023/04/18 15:02:30;;;;;;;;;;;16.40;84.90;;;;;;6245480;23;20216;-75
2023/04/18 15:04:57;;;;;;;;;;;16.30;85.00;;;;;;6245856;23;19910;-75
2023/04/18 15:07:24;;;;;;;;;;;16.30;84.80;;;;;;6245241;22;19925;-75
2023/04/18 15:09:50;;;;;;;;;;;16.30;84.90;;;;;;6245324;23;19903;-75
2023/04/18 15:12:17;;;;;;;;;;;16.40;85.00;;;;;;6245741;23;19912;-75
2023/04/18 15:14:43;;;;;;;;;;;16.30;85.00;;;;;;6245584;23;19908;-75
2023/04/18 15:17:10;;;;;;;;;;;16.30;85.20;;;;;;6245304;22;19908;-75
2023/04/18 15:19:37;;;;;;;;;;;16.30;85.50;;;;;;6246234;23;19979;-75
2023/04/18 15:22:03;;;;;;;;;;;16.20;85.40;;;;;;6245823;23;20038;-75
2023/04/18 15:24:30;;;;;;;;;;;16.20;85.60;;;;;;6245945;23;19946;-75
2023/04/18 15:26:57;;;;;;;;;;;16.20;85.70;;;;;;6245448;22;19973;-75
2023/04/18 15:29:24;;;;;;;;;;;16.20;85.80;;;;;;6245462;23;19935;-75
2023/04/18 15:31:50;;;;;;;;;;;16.20;85.80;;;;;;6245893;23;19973;-75
2023/04/18 15:34:17;;;;;;;;;;;16.20;85.70;;;;;;6245296;23;19934;-75
2023/04/18 15:36:44;;;;;;;;;;;16.20;85.90;;;;;;6244626;22;19908;-75
2023/04/18 15:39:10;;;;;;;;;;;16.20;86.10;;;;;;6242244;22;19915;-75
2023/04/18 15:41:37;;;;;;;;;;;16.20;85.90;;;;;;6277102;22;20326;-75
2023/04/18 15:44:04;;;;;;;;;;;16.20;86.10;;;;;;6275824;22;19907;-75
2023/04/18 15:46:31;;;;;;;;;;;16.20;86.20;;;;;;6275031;22;20330;-75
2023/04/18 15:48:58;;;;;;;;;;;16.10;86.20;;;;;;6249014;22;20278;-75
2023/04/18 15:51:29;;;;;;;;;;;16.10;86.60;;;;;;6276147;22;19986;-75
2023/04/18 15:53:55;;;;;;;;;;;16.00;86.90;;;;;;6249749;22;20284;-75
2023/04/18 15:56:24;;;;;;;;;;;16.00;87.00;;;;;;6276110;22;20489;-75
2023/04/18 15:58:51;;;;;;;;;;;16.00;86.90;;;;;;6275938;22;19909;-75
2023/04/18 16:01:18;;;;;;;;;;;16.00;87.00;;;;;;6248929;22;19903;-75
2023/04/18 16:03:45;;;;;;;;;;;16.00;87.20;;;;;;6249505;22;20444;-75
2023/04/18 16:06:13;;;;;;;;;;;16.00;87.20;;;;;;6276551;22;19926;-75
2023/04/18 16:08:39;;;;;;;;;;;16.00;87.10;;;;;;6248920;22;19957;-75
2023/04/18 16:11:07;;;;;;;;;;;16.00;87.10;;;;;;6249273;22;19904;-75
2023/04/18 16:13:36;;;;;;;;;;;16.00;86.90;;;;;;6276164;22;19908;-75
2023/04/18 16:16:06;;;;;;;;;;;16.00;87.00;;;;;;6276313;22;19914;-75
2023/04/18 16:18:32;;;;;;;;;;;16.00;87.30;;;;;;6275366;22;19911;-75
2023/04/18 16:20:59;;;;;;;;;;;16.00;87.90;;;;;;6276550;22;19907;-75
2023/04/18 16:23:26;;;;;;;;;;;15.90;88.00;;;;;;6276251;22;19969;-75
2023/04/18 16:25:54;;;;;;;;;;;15.90;88.00;;;;;;6276283;22;19903;-75
2023/04/18 16:28:20;;;;;;;;;;;15.90;88.30;;;;;;6275463;22;19903;-75
2023/04/18 16:30:47;;;;;;;;;;;15.80;87.70;;;;;;6249047;22;19914;-75
2023/04/18 16:33:14;;;;;;;;;;;15.80;87.70;;;;;;6248784;22;19927;-75
2023/04/18 16:35:41;;;;;;;;;;;15.70;87.80;;;;;;6248976;22;19987;-75
2023/04/18 16:38:07;;;;;;;;;;;15.70;87.60;;;;;;6247656;22;19915;-74
2023/04/18 16:40:34;;;;;;;;;;;15.70;87.60;;;;;;6275993;22;19961;-75
2023/04/18 16:43:01;;;;;;;;;;;15.60;87.50;;;;;;6248891;22;20334;-75
2023/04/18 16:45:27;;;;;;;;;;;15.60;87.80;;;;;;6276171;22;19931;-75
2023/04/18 16:47:54;;;;;;;;;;;15.60;87.90;;;;;;6275926;22;19914;-75
2023/04/18 16:50:21;;;;;;;;;;;15.60;87.90;;;;;;6248988;22;19911;-75
2023/04/18 16:52:48;;;;;;;;;;;15.60;88.00;;;;;;6275673;22;20203;-75
2023/04/18 16:55:14;;;;;;;;;;;15.70;88.00;;;;;;6275985;22;19982;-75
2023/04/18 16:57:41;;;;;;;;;;;15.70;88.20;;;;;;6274509;22;19903;-75
2023/04/18 17:00:09;;;;;;;;;;;15.70;88.10;;;;;;6276106;22;20310;-75
2023/04/18 17:02:38;;;;;;;;;;;15.70;88.00;;;;;;6275508;22;20318;-75
2023/04/18 17:05:04;;;;;;;;;;;15.70;88.00;;;;;;6277121;22;19911;-75
2023/04/18 17:07:31;;;;;;;;;;;15.70;88.00;;;;;;6276742;22;19985;-75
2023/04/18 17:09:58;;;;;;;;;;;15.70;88.20;;;;;;6278051;22;19915;-75
2023/04/18 17:12:25;;;;;;;;;;;15.60;88.30;;;;;;6276989;22;20234;-74
2023/04/18 17:14:51;;;;;;;;;;;15.60;88.50;;;;;;6277552;22;19914;-75
2023/04/18 17:17:18;;;;;;;;;;;15.60;88.70;;;;;;6277031;22;19907;-75
2023/04/18 17:54:00;;;;;;;;;;;15.50;89.00;;;;;;6253816;22;19922;-75
2023/04/18 17:56:29;;;;;;;;;;;15.40;89.10;;;;;;6219503;23;19912;-75
2023/04/18 17:58:56;;;;;;;;;;;15.30;89.20;;;;;;6246647;23;19907;-75
2023/04/18 18:01:24;;;;;;;;;;;15.20;89.30;;;;;;6219717;23;20349;-75
2023/04/18 18:03:52;;;;;;;;;;;15.20;89.40;;;;;;6246237;23;20230;-75
2023/04/18 18:06:19;;;;;;;;;;;15.20;89.70;;;;;;6246995;22;19908;-75
2023/04/18 18:08:45;;;;;;;;;;;15.20;89.70;;;;;;6246548;23;19903;-75
2023/04/18 18:11:12;;;;;;;;;;;15.20;89.70;;;;;;6246288;23;20231;-75
2023/04/18 18:13:39;;;;;;;;;;;15.20;89.90;;;;;;6246571;23;19983;-75
2023/04/18 18:16:06;;;;;;;;;;;15.20;90.00;;;;;;6245993;22;19908;-75
2023/04/18 18:18:32;;;;;;;;;;;15.20;89.70;;;;;;6246103;23;20331;-75
2023/04/18 18:20:59;;;;;;;;;;;15.30;89.80;;;;;;6246539;23;19910;-75
2023/04/18 18:23:26;;;;;;;;;;;15.30;89.80;;;;;;6246360;23;19911;-75
2023/04/18 18:25:53;;;;;;;;;;;15.30;89.70;;;;;;6246416;23;19983;-75
2023/04/18 18:28:19;;;;;;;;;;;15.30;89.80;;;;;;6246016;22;19911;-75
2023/04/18 18:30:46;;;;;;;;;;;15.30;90.00;;;;;;6219893;23;19903;-75
2023/04/18 18:33:13;;;;;;;;;;;15.30;89.90;;;;;;6246170;23;20326;-75
2023/04/18 18:35:39;;;;;;;;;;;15.30;90.00;;;;;;6246177;23;19982;-75
2023/04/18 18:38:06;;;;;;;;;;;15.40;89.90;;;;;;6245943;22;20020;-75
2023/04/18 18:40:33;;;;;;;;;;;15.30;89.90;;;;;;6246698;23;19982;-75
2023/04/18 18:43:00;;;;;;;;;;;15.30;89.90;;;;;;6246108;23;20419;-75
2023/04/18 18:45:26;;;;;;;;;;;15.30;89.80;;;;;;6246008;23;20002;-75
2023/04/18 18:47:53;;;;;;;;;;;15.30;90.00;;;;;;6246064;22;19907;-77
2023/04/18 18:50:20;;;;;;;;;;;15.30;89.80;;;;;;6243576;23;19904;-75
2023/04/18 18:52:47;;;;;;;;;;;15.30;89.80;;;;;;6245821;22;19915;-76
2023/04/18 18:55:15;;;;;;;;;;;15.40;89.80;;;;;;6245733;23;19907;-76
2023/04/18 18:57:41;;;;;;;;;;;15.40;89.50;;;;;;6245843;22;20378;-76
2023/04/18 19:00:09;;;;;;;;;;;15.40;89.50;;;;;;6245416;23;19979;-76
2023/04/18 19:02:37;;;;;;;;;;;15.40;89.30;;;;;;6245768;23;20010;-76
2023/04/18 19:05:03;;;;;;;;;;;15.40;89.40;;;;;;6245933;23;19908;-76
2023/04/18 19:07:30;;;;;;;;;;;15.40;89.10;;;;;;6245862;22;19908;-76
2023/04/18 19:09:59;;;;;;;;;;;15.50;89.00;;;;;;6245517;23;19950;-76
2023/04/18 19:12:27;;;;;;;;;;;15.40;89.00;;;;;;6245590;23;19965;-76
2023/04/18 19:14:53;;;;;;;;;;;15.40;89.10;;;;;;6244445;23;19907;-76
2023/04/18 19:17:23;;;;;;;;;;;15.40;89.00;;;;;;6245230;22;19903;-75
2023/04/18 19:19:50;;;;;;;;;;;15.40;89.10;;;;;;6246248;23;19908;-75
2023/04/18 21:37:52;;;;;;;;;;;15.70;89.80;;;;;;6251218;22;19999;-76
2023/04/18 21:40:19;;;;;;;;;;;15.70;89.60;;;;;;6243421;23;19912;-77
2023/04/18 21:42:45;;;;;;;;;;;15.70;89.40;;;;;;6244536;23;19990;-76
2023/04/18 21:45:12;;;;;;;;;;;15.80;89.30;;;;;;6244905;23;19958;-77
2023/04/18 21:47:38;;;;;;;;;;;15.80;89.20;;;;;;6244350;22;19904;-76
2023/04/18 21:50:05;;;;;;;;;;;15.90;89.10;;;;;;6244805;23;19904;-77
2023/04/18 21:52:32;;;;;;;;;;;16.00;89.00;;;;;;6245916;23;20296;-76
2023/04/18 21:54:58;;;;;;;;;;;16.10;88.80;;;;;;6246780;23;19904;-76
2023/04/18 21:57:25;;;;;;;;;;;16.10;88.40;;;;;;6245659;22;19987;-76
2023/04/18 21:59:52;;;;;;;;;;;16.20;88.30;;;;;;6246252;23;19910;-75
2023/04/18 22:02:18;;;;;;;;;;;16.20;88.30;;;;;;6246862;23;20014;-76
2023/04/18 22:04:46;;;;;;;;;;;16.30;88.10;;;;;;6246723;23;19926;-76
2023/04/18 22:07:14;;;;;;;;;;;16.30;88.20;;;;;;6246287;22;19908;-77
2023/04/18 22:09:42;;;;;;;;;;;16.30;87.70;;;;;;6246653;23;20368;-76
2023/04/18 22:12:09;;;;;;;;;;;16.30;87.80;;;;;;6246698;23;19931;-76
2023/04/18 22:14:36;;;;;;;;;;;16.30;88.00;;;;;;6245854;23;19910;-76
2023/04/18 22:17:03;;;;;;;;;;;16.30;88.00;;;;;;6246853;22;19957;-76
2023/04/18 22:19:30;;;;;;;;;;;16.30;88.00;;;;;;6247083;23;19904;-76
2023/04/18 22:21:57;;;;;;;;;;;16.40;88.00;;;;;;6246649;23;19919;-76
2023/04/18 22:24:24;;;;;;;;;;;16.40;88.00;;;;;;6247114;23;19910;-75
2023/04/18 22:26:51;;;;;;;;;;;16.50;87.90;;;;;;6246707;22;19962;-76
2023/04/18 22:29:18;;;;;;;;;;;16.50;87.70;;;;;;6247229;23;19939;-76
2023/04/18 22:31:45;;;;;;;;;;;16.50;87.60;;;;;;6246767;23;19911;-76
2023/04/18 22:34:12;;;;;;;;;;;16.60;87.80;;;;;;6245259;23;20350;-75
2023/04/18 22:58:19;;;;;;;;;;;17.10;86.60;;;;;;6248397;22;19922;-76
2023/04/18 23:00:45;;;;;;;;;;;17.20;86.40;;;;;;6244547;23;19994;-76
2023/04/18 23:03:12;;;;;;;;;;;17.20;86.20;;;;;;6245601;23;19911;-76
2023/04/18 23:05:39;;;;;;;;;;;17.30;86.00;;;;;;6244646;23;20345;-76
2023/04/18 23:08:06;;;;;;;;;;;17.30;85.70;;;;;;6217864;23;19910;-77
2023/04/18 23:10:33;;;;;;;;;;;17.40;85.60;;;;;;6244692;23;19919;-76
2023/04/18 23:13:00;;;;;;;;;;;17.40;85.50;;;;;;6243690;23;19911;-76
2023/04/18 23:15:26;;;;;;;;;;;17.50;85.30;;;;;;6244690;23;19907;-76
2023/04/18 23:17:53;;;;;;;;;;;17.50;85.30;;;;;;6246218;22;19904;-76
2023/04/18 23:20:20;;;;;;;;;;;17.60;85.10;;;;;;6219537;23;19910;-76
2023/04/18 23:22:50;;;;;;;;;;;17.60;84.60;;;;;;6219467;23;19969;-76
2023/04/18 23:25:18;;;;;;;;;;;17.60;84.80;;;;;;6246091;23;20033;-76
2023/04/18 23:27:44;;;;;;;;;;;17.70;84.80;;;;;;6246851;22;20227;-76
2023/04/18 23:30:11;;;;;;;;;;;17.70;84.50;;;;;;6243482;23;20286;-76
2023/04/18 23:32:38;;;;;;;;;;;17.70;84.30;;;;;;6245711;23;19950;-76
2023/04/18 23:35:05;;;;;;;;;;;17.80;84.00;;;;;;6245983;23;19910;-76
2023/04/18 23:37:32;;;;;;;;;;;17.80;84.00;;;;;;6246020;22;19935;-76
2023/04/18 23:39:59;;;;;;;;;;;17.90;83.60;;;;;;6245801;23;19934;-76
2023/04/18 23:42:26;;;;;;;;;;;17.90;83.60;;;;;;6219233;23;20307;-76
2023/04/18 23:44:53;;;;;;;;;;;18.00;83.60;;;;;;6245853;23;20219;-76
2023/04/18 23:47:20;;;;;;;;;;;18.00;83.50;;;;;;6245464;22;19926;-76
2023/04/18 23:49:47;;;;;;;;;;;18.20;83.30;;;;;;6244939;23;20329;-76
2023/04/18 23:52:14;;;;;;;;;;;18.20;83.10;;;;;;6230873;23;19907;-75
2023/04/18 23:54:40;;;;;;;;;;;18.30;82.70;;;;;;6244085;23;19904;-76
2023/04/18 23:57:07;;;;;;;;;;;18.30;82.10;;;;;;6243784;22;19985;-76
2023/04/18 23:59:34;;;;;;;;;;;18.30;81.80;;;;;;6207485;23;19904;-76
